Culverden, New Zealand
Current Conditions -  °F | °C
As of 7:30 PM on Sunday 23 Nov 2014 (Local Time) from NZCH Reporting Station
Clear Clear  
Wind Chill: 55°   Ceiling: Unl
Heat Index: 55°   Visibility: 6mi
Dew Point: 48°   Wind: 20mph
Humidity: 77%   Direction: 70°ENE
Pressure: 29.88"   Gusts: NA
Location:  42.77°S, 172.86°E
Report Text: NZCH 230730Z AUTO 07017KT 9999 NCD 13/09 Q1012 BECMG FM080030005KT
Loading
Personal Weather Stations






























Interactive Weather Map New forecast layout! Learn more

10-Day Weather Forecast

Advertisements
Track Severe Weather on mobile